Piedras Negras International Airport
MMPG : now visible

Airfield :











YOU CAN JOIN US ON...

 
LOGIN :

Register | Disclaimer

   EN    FR    IT 

 









Legend :    VFR   Marginal VFR   IFR   Intensive IFR   Very Intensive IFR
Visi :
Ceiling :
>= 8 km
>= 3000ft
5 to 8 km
1000 to 3000 ft
1500m to 5 km
500 to 1000 ft
800 to 1500m
200 to 500 ft
< 800m
< 200 ft
Symbols :   Thunderstorms  Fog  Heavy snow  Heavy precipitations  Wind > 20 kt






- Airport Elevation : 901 ft
- IATA code : PDS


MMPG - Piedras Negras International

METAR N/A
TAF TAF MMPG
Valid from the 28 at 06:00 until the 29 at 06:00 UTC


280535Z 2806/2906 12010KT 6SM HZ SCT020 BKN100
FM281000 33010G25KT 5SM HZ BKN015
TEMPO 2812/2816 3SM -RA BR BKN005 OVC010CB
FM281800 33015G30KT P6SM SKC
FM290300 33025KT P6SM SKC



MET'MAP, your aeronautical weather chart ! - Copyright ORBIFLY December 2007 - Disclaimer

ORBIFLY MET'MAP TEAM :

Programming & Development : Alexandra Zaïnal
Concept & original design : Baudouin d'Aumeries
Assistance for programming : Marc-Olivier Méhu
Technical & hardware support : Manuel Goepfert

Contact : metmap@orbifly.com




SOURCES & CREDITS :

   NOAA       Earth
Advisory